createdAt,value
2023-04-26T00:00:54.213Z,22.97
2023-04-26T00:01:54.189Z,23.01
2023-04-26T00:02:54.276Z,23.06
2023-04-26T00:03:54.414Z,23.11
2023-04-26T00:04:54.351Z,23.15
2023-04-26T00:05:54.266Z,23.19
2023-04-26T00:06:54.227Z,23.23
2023-04-26T00:07:54.165Z,23.27
2023-04-26T00:08:54.368Z,23.30
2023-04-26T00:09:54.153Z,23.34
2023-04-26T00:10:54.177Z,23.37
2023-04-26T00:11:54.125Z,23.41
2023-04-26T00:12:54.129Z,23.43
2023-04-26T00:13:54.115Z,23.46
2023-04-26T00:14:54.099Z,23.49
2023-04-26T00:15:54.142Z,23.51
2023-04-26T00:16:54.094Z,23.54
2023-04-26T00:17:54.249Z,23.55
2023-04-26T00:18:54.401Z,23.57
2023-04-26T00:19:54.062Z,23.59
2023-04-26T00:20:54.058Z,23.60
2023-04-26T00:21:54.049Z,23.61
2023-04-26T00:22:54.041Z,23.63
2023-04-26T00:23:54.041Z,23.64
2023-04-26T00:24:54.034Z,23.65
2023-04-26T00:25:54.028Z,23.66
2023-04-26T00:26:54.040Z,23.67
2023-04-26T00:27:54.004Z,23.68
2023-04-26T00:28:54.425Z,23.68
2023-04-26T00:29:53.999Z,23.69
2023-04-26T00:30:53.997Z,23.69
2023-04-26T00:31:54.028Z,23.69
2023-04-26T00:32:54.026Z,23.71
2023-04-26T00:33:53.991Z,23.71
2023-04-26T00:34:53.974Z,23.71
2023-04-26T00:35:53.996Z,23.71
2023-04-26T00:36:53.971Z,23.71
2023-04-26T00:37:53.951Z,23.72
2023-04-26T00:38:54.119Z,23.72
2023-04-26T00:39:53.948Z,23.72
2023-04-26T00:40:53.990Z,23.73
2023-04-26T00:41:54.031Z,23.72
2023-04-26T00:42:54.081Z,23.73
2023-04-26T00:43:54.118Z,23.73
2023-04-26T00:44:54.154Z,23.73
2023-04-26T00:45:54.219Z,23.74
2023-04-26T00:46:54.259Z,23.74
2023-04-26T00:47:54.292Z,23.74
2023-04-26T00:48:54.605Z,23.74
2023-04-26T00:49:54.375Z,23.73
2023-04-26T00:50:54.401Z,23.74
2023-04-26T00:51:54.454Z,23.74
2023-04-26T00:52:54.498Z,23.75
2023-04-26T00:53:54.541Z,23.74
2023-04-26T00:54:54.581Z,23.75
2023-04-26T00:55:54.666Z,23.74
2023-04-26T00:56:54.647Z,23.75
2023-04-26T00:57:54.673Z,23.74
2023-04-26T00:58:54.921Z,23.74
2023-04-26T00:59:54.762Z,23.74
2023-04-26T01:00:54.828Z,23.74
2023-04-26T01:01:54.832Z,23.74
2023-04-26T01:02:55.011Z,23.75
2023-04-26T01:03:55.028Z,23.74
2023-04-26T01:04:54.914Z,23.75
2023-04-26T01:05:54.956Z,23.75
2023-04-26T01:06:54.972Z,23.75
2023-04-26T01:07:55.039Z,23.75
2023-04-26T01:08:55.094Z,23.76
2023-04-26T01:09:55.131Z,23.76
2023-04-26T01:10:55.165Z,23.75
2023-04-26T01:11:55.201Z,23.75
2023-04-26T01:12:55.246Z,23.76
2023-04-26T01:13:55.291Z,23.76
2023-04-26T01:14:55.366Z,23.76
2023-04-26T01:15:55.394Z,23.76
2023-04-26T01:16:55.501Z,23.75
2023-04-26T01:17:55.463Z,23.75
2023-04-26T01:18:55.444Z,23.76
2023-04-26T01:19:55.457Z,23.76
2023-04-26T01:20:55.481Z,23.75
2023-04-26T01:21:55.530Z,23.76
2023-04-26T01:22:55.567Z,23.75
2023-04-26T01:23:55.610Z,23.75
2023-04-26T01:24:55.647Z,23.76
2023-04-26T01:25:55.670Z,23.76
2023-04-26T01:26:55.718Z,23.76
2023-04-26T01:27:55.776Z,23.76
2023-04-26T01:28:55.808Z,23.76
2023-04-26T01:29:55.862Z,23.76
2023-04-26T01:30:55.934Z,23.76
2023-04-26T01:31:55.929Z,23.76
2023-04-26T01:32:56.070Z,23.76
2023-04-26T01:33:56.045Z,23.76
2023-04-26T01:34:56.072Z,23.76
2023-04-26T01:35:56.130Z,23.76
2023-04-26T01:36:56.186Z,23.76
2023-04-26T01:37:56.240Z,23.76
2023-04-26T01:38:56.324Z,23.76
2023-04-26T01:39:56.359Z,23.76
2023-04-26T01:40:56.425Z,23.76
2023-04-26T01:41:56.481Z,23.76
2023-04-26T01:42:56.523Z,23.76
2023-04-26T01:43:56.585Z,23.76
2023-04-26T01:44:56.614Z,23.76
2023-04-26T01:45:56.686Z,23.77
2023-04-26T01:46:56.738Z,23.76
2023-04-26T01:47:56.829Z,23.75
2023-04-26T01:48:56.829Z,23.75
2023-04-26T01:49:56.871Z,23.76
2023-04-26T01:50:56.913Z,23.76
2023-04-26T01:51:56.976Z,23.75
2023-04-26T01:52:57.024Z,23.76
2023-04-26T01:53:57.071Z,23.76
2023-04-26T01:54:57.105Z,23.76
2023-04-26T01:55:57.138Z,23.76
2023-04-26T01:56:57.176Z,23.75
2023-04-26T01:57:57.197Z,23.75
2023-04-26T01:58:57.250Z,23.76
2023-04-26T01:59:57.277Z,23.76
2023-04-26T02:00:57.323Z,23.76
2023-04-26T02:01:57.420Z,23.76
2023-04-26T02:02:57.489Z,23.76
2023-04-26T02:03:57.484Z,23.76
2023-04-26T02:04:57.555Z,23.75
2023-04-26T02:05:57.564Z,23.76
2023-04-26T02:06:57.629Z,23.76
2023-04-26T02:07:57.666Z,23.76
2023-04-26T02:08:57.714Z,23.76
2023-04-26T02:09:57.774Z,23.76
2023-04-26T02:10:57.824Z,23.76
2023-04-26T02:11:57.837Z,23.76
2023-04-26T02:12:57.867Z,23.75
2023-04-26T02:13:57.918Z,23.75
2023-04-26T02:14:57.944Z,23.76
2023-04-26T02:15:58.013Z,23.76
2023-04-26T02:16:58.027Z,23.75
2023-04-26T02:17:58.175Z,23.76
2023-04-26T02:18:58.133Z,23.76
2023-04-26T02:19:58.159Z,23.75
2023-04-26T02:20:58.210Z,23.75
2023-04-26T02:21:58.296Z,23.75
2023-04-26T02:22:58.305Z,23.76
2023-04-26T02:23:58.365Z,23.75
2023-04-26T02:24:58.435Z,23.75
2023-04-26T02:25:58.504Z,23.75
2023-04-26T02:26:58.552Z,23.74
2023-04-26T02:27:58.593Z,23.76
2023-04-26T02:28:58.638Z,23.75
2023-04-26T02:29:58.704Z,23.76
2023-04-26T02:30:58.843Z,23.76
2023-04-26T02:31:58.826Z,23.75
2023-04-26T02:32:58.857Z,23.75
2023-04-26T02:33:58.865Z,23.75
2023-04-26T02:34:59.099Z,23.75
2023-04-26T02:35:58.939Z,23.75
2023-04-26T02:36:58.963Z,23.75
2023-04-26T02:37:59.012Z,23.75
2023-04-26T02:38:59.050Z,23.74
2023-04-26T02:39:59.076Z,23.75
2023-04-26T02:40:59.106Z,23.75
2023-04-26T02:41:59.125Z,23.76
2023-04-26T02:42:59.159Z,23.75
2023-04-26T02:43:59.195Z,23.75
2023-04-26T02:44:59.241Z,23.75
2023-04-26T02:45:59.294Z,23.75
2023-04-26T02:46:59.340Z,23.76
2023-04-26T02:47:59.405Z,23.75
2023-04-26T02:48:59.399Z,23.75
2023-04-26T02:49:59.430Z,23.75
2023-04-26T02:50:59.512Z,23.75
2023-04-26T02:51:59.543Z,23.75
2023-04-26T02:52:59.595Z,23.75
2023-04-26T02:53:59.628Z,23.75
2023-04-26T02:54:59.677Z,23.75
2023-04-26T02:55:59.701Z,23.75
2023-04-26T02:56:59.743Z,23.74
2023-04-26T02:57:59.785Z,23.75
2023-04-26T02:58:59.846Z,23.75
2023-04-26T02:59:59.910Z,23.75
2023-04-26T03:01:01.676Z,23.75
2023-04-26T03:02:00.011Z,23.75
2023-04-26T03:03:00.161Z,23.74
2023-04-26T03:04:00.031Z,23.74
2023-04-26T03:04:59.923Z,23.74
2023-04-26T03:05:59.902Z,23.75
2023-04-26T03:06:59.937Z,23.74
2023-04-26T03:07:59.899Z,23.74
2023-04-26T03:08:59.888Z,23.74
2023-04-26T03:09:59.882Z,23.74
2023-04-26T03:10:59.871Z,23.74
2023-04-26T03:11:59.874Z,23.75
2023-04-26T03:12:59.905Z,23.75
2023-04-26T03:13:59.858Z,23.75
2023-04-26T03:14:59.841Z,23.75
2023-04-26T03:15:59.841Z,23.75
2023-04-26T03:16:59.858Z,23.75
2023-04-26T03:17:59.837Z,23.75
2023-04-26T03:18:59.812Z,23.75
2023-04-26T03:20:02.371Z,23.75
2023-04-26T03:20:59.801Z,23.74
2023-04-26T03:21:59.810Z,23.74
2023-04-26T03:22:59.872Z,23.74
2023-04-26T03:23:59.813Z,23.74
2023-04-26T03:24:59.773Z,23.74
2023-04-26T03:25:59.778Z,23.74
2023-04-26T03:26:59.769Z,23.75
2023-04-26T03:27:59.758Z,23.75
2023-04-26T03:28:59.755Z,23.75
2023-04-26T03:29:59.752Z,23.75
2023-04-26T03:30:59.737Z,23.74
2023-04-26T03:31:59.841Z,23.74
2023-04-26T03:32:59.744Z,23.74
2023-04-26T03:33:59.711Z,23.74
2023-04-26T03:34:59.737Z,23.74
2023-04-26T03:35:59.700Z,23.75
2023-04-26T03:36:59.696Z,23.74
2023-04-26T03:37:59.694Z,23.74
2023-04-26T03:38:59.704Z,23.73
2023-04-26T03:39:59.680Z,23.74
2023-04-26T03:40:59.667Z,23.74
2023-04-26T03:41:59.662Z,23.73
2023-04-26T03:42:59.667Z,23.73
2023-04-26T03:43:59.641Z,23.73
2023-04-26T03:44:59.639Z,23.74
2023-04-26T03:45:59.670Z,23.74
2023-04-26T03:46:59.619Z,23.74
2023-04-26T03:47:59.651Z,23.74
2023-04-26T03:48:59.608Z,23.74
2023-04-26T03:49:59.636Z,23.73
2023-04-26T03:50:59.680Z,23.74
2023-04-26T03:51:59.721Z,23.74
2023-04-26T03:52:59.759Z,23.74
2023-04-26T03:53:59.799Z,23.75
2023-04-26T03:54:59.864Z,23.74
2023-04-26T03:55:59.894Z,23.74
2023-04-26T03:56:59.950Z,23.74
2023-04-26T03:58:00.019Z,23.73
2023-04-26T03:59:00.096Z,23.74
2023-04-26T04:00:00.199Z,23.74
2023-04-26T04:01:00.189Z,23.74
2023-04-26T04:02:00.299Z,23.74
2023-04-26T04:03:00.408Z,23.74
2023-04-26T04:04:00.780Z,23.74
2023-04-26T04:05:00.717Z,23.74
2023-04-26T04:06:00.441Z,23.74
2023-04-26T04:07:00.511Z,23.74
2023-04-26T04:08:00.549Z,23.74
2023-04-26T04:09:00.552Z,23.74
2023-04-26T04:10:00.612Z,23.74
2023-04-26T04:11:00.687Z,23.74
2023-04-26T04:12:00.695Z,23.74
2023-04-26T04:13:00.731Z,23.74
2023-04-26T04:14:00.798Z,23.73
2023-04-26T04:15:00.830Z,23.74
2023-04-26T04:16:00.899Z,23.74
2023-04-26T04:17:00.948Z,23.74
2023-04-26T04:18:00.990Z,23.74
2023-04-26T04:19:01.008Z,23.74
2023-04-26T04:20:01.053Z,23.74
2023-04-26T04:21:01.078Z,23.74
2023-04-26T04:22:01.127Z,23.75
2023-04-26T04:23:01.163Z,23.74
2023-04-26T04:24:01.210Z,23.74
2023-04-26T04:25:01.253Z,23.74
2023-04-26T04:26:01.299Z,23.75
2023-04-26T04:27:01.358Z,23.75
2023-04-26T04:28:01.376Z,23.74
2023-04-26T04:29:01.414Z,23.74
2023-04-26T04:30:01.447Z,23.74
2023-04-26T04:31:01.497Z,23.74
2023-04-26T04:32:01.530Z,23.74
2023-04-26T04:33:01.653Z,23.75
2023-04-26T04:34:01.644Z,23.75
2023-04-26T04:35:01.704Z,23.75
2023-04-26T04:36:01.756Z,23.76
2023-04-26T04:37:01.803Z,23.74
2023-04-26T04:38:01.873Z,23.75
2023-04-26T04:39:01.897Z,23.76
2023-04-26T04:40:01.975Z,23.75
2023-04-26T04:41:01.973Z,23.75
2023-04-26T04:42:02.006Z,23.74
2023-04-26T04:43:02.052Z,23.74
2023-04-26T04:44:02.066Z,23.74
2023-04-26T04:45:02.096Z,23.74
2023-04-26T04:46:02.148Z,23.75
2023-04-26T04:47:02.167Z,23.75
2023-04-26T04:48:02.265Z,23.75
2023-04-26T04:49:02.218Z,23.76
2023-04-26T04:50:02.288Z,23.76
2023-04-26T04:51:02.325Z,23.76
2023-04-26T04:52:02.354Z,23.76
2023-04-26T04:53:02.413Z,23.76
2023-04-26T04:54:02.470Z,23.76
2023-04-26T04:55:02.528Z,23.76
2023-04-26T04:56:02.584Z,23.76
2023-04-26T04:57:02.632Z,23.76
2023-04-26T04:58:02.685Z,23.77
2023-04-26T04:59:02.745Z,23.77
2023-04-26T05:00:02.815Z,23.77
2023-04-26T05:01:02.825Z,23.77
2023-04-26T05:02:02.981Z,23.77
2023-04-26T05:03:03.119Z,23.78
2023-04-26T05:04:03.077Z,23.77
2023-04-26T05:05:03.128Z,23.77
2023-04-26T05:06:03.065Z,23.77
2023-04-26T05:07:03.098Z,23.77
2023-04-26T05:08:03.140Z,23.77
2023-04-26T05:09:03.191Z,23.77
2023-04-26T05:10:03.249Z,23.77
2023-04-26T05:11:03.316Z,23.77
2023-04-26T05:12:03.403Z,23.77
2023-04-26T05:13:03.426Z,23.77
2023-04-26T05:14:03.564Z,23.78
2023-04-26T05:15:03.571Z,23.78
2023-04-26T05:16:03.636Z,23.78
2023-04-26T05:17:03.653Z,23.79
2023-04-26T05:18:03.759Z,23.79
2023-04-26T05:19:03.761Z,23.79
2023-04-26T05:20:03.836Z,23.79
2023-04-26T05:21:03.894Z,23.79
2023-04-26T05:22:03.944Z,23.79
2023-04-26T05:23:04.036Z,23.79
2023-04-26T05:24:04.074Z,23.80
2023-04-26T05:25:04.165Z,23.80
2023-04-26T05:26:04.243Z,23.80
2023-04-26T05:27:04.597Z,23.81
2023-04-26T05:28:04.326Z,23.80
2023-04-26T05:29:04.382Z,23.81
2023-04-26T05:30:04.447Z,23.82
2023-04-26T05:31:04.543Z,23.82
2023-04-26T05:32:04.677Z,23.83
2023-04-26T05:33:04.727Z,23.83
2023-04-26T05:34:04.726Z,23.83
2023-04-26T05:35:05.092Z,23.84
2023-04-26T05:36:04.825Z,23.84
2023-04-26T05:37:04.895Z,23.85
2023-04-26T05:38:04.959Z,23.86
2023-04-26T05:39:05.040Z,23.84
2023-04-26T05:40:05.572Z,23.84
2023-04-26T05:41:05.145Z,23.86
2023-04-26T05:42:05.215Z,23.86
2023-04-26T05:43:05.268Z,23.85
2023-04-26T05:44:05.327Z,23.86
2023-04-26T05:45:05.418Z,23.86
2023-04-26T05:46:05.534Z,23.87
2023-04-26T05:47:05.548Z,23.86
2023-04-26T05:48:05.624Z,23.87
2023-04-26T05:49:05.653Z,23.87
2023-04-26T05:50:06.079Z,23.88
2023-04-26T05:51:05.770Z,23.90
2023-04-26T05:52:05.826Z,23.90
2023-04-26T05:53:05.902Z,23.89
2023-04-26T05:54:06.087Z,23.89
2023-04-26T05:55:06.357Z,23.89
2023-04-26T05:56:06.068Z,23.89
2023-04-26T05:57:06.194Z,23.91
2023-04-26T05:58:06.203Z,23.92
2023-04-26T05:59:06.580Z,23.94
2023-04-26T06:00:06.317Z,23.96
2023-04-26T06:01:06.326Z,23.98
2023-04-26T06:02:06.611Z,24.00
2023-04-26T06:03:06.688Z,24.02
2023-04-26T06:04:07.021Z,24.06
2023-04-26T06:05:06.828Z,24.08
2023-04-26T06:06:06.526Z,24.11
2023-04-26T06:07:06.566Z,24.12
2023-04-26T06:08:07.081Z,24.16
2023-04-26T06:09:06.646Z,24.18
2023-04-26T06:10:07.085Z,24.20
2023-04-26T06:11:06.675Z,24.20
2023-04-26T06:12:06.699Z,24.22
2023-04-26T06:13:06.715Z,24.24
2023-04-26T06:14:08.925Z,24.24
2023-04-26T06:15:07.084Z,24.24
2023-04-26T06:16:06.699Z,24.24
2023-04-26T06:17:06.730Z,24.26
2023-04-26T06:18:06.792Z,24.27
2023-04-26T06:19:06.815Z,24.27
2023-04-26T06:20:07.086Z,24.28
2023-04-26T06:21:06.664Z,24.28
2023-04-26T06:22:06.665Z,24.29
2023-04-26T06:23:06.656Z,24.29
2023-04-26T06:24:06.813Z,24.30
2023-04-26T06:25:07.095Z,24.30
2023-04-26T06:26:07.092Z,24.32
2023-04-26T06:27:06.614Z,24.33
2023-04-26T06:28:06.626Z,24.34
2023-04-26T06:29:06.610Z,24.35
2023-04-26T06:30:06.604Z,24.36
2023-04-26T06:31:07.130Z,24.36
2023-04-26T06:32:06.594Z,24.36
2023-04-26T06:33:06.625Z,24.36
2023-04-26T06:34:07.882Z,24.37
2023-04-26T06:35:06.656Z,24.37
2023-04-26T06:36:06.548Z,24.38
2023-04-26T06:37:06.598Z,24.36
2023-04-26T06:38:06.822Z,24.31
2023-04-26T06:39:06.537Z,24.27
2023-04-26T06:40:06.556Z,24.22
2023-04-26T06:41:06.607Z,24.17
2023-04-26T06:42:06.513Z,24.11
2023-04-26T06:43:06.521Z,24.07
2023-04-26T06:44:06.499Z,24.00
2023-04-26T06:45:06.595Z,23.95
2023-04-26T06:46:09.738Z,23.90
2023-04-26T06:47:06.482Z,23.85
2023-04-26T06:48:07.156Z,23.82
2023-04-26T06:49:06.465Z,23.79
2023-04-26T06:50:06.606Z,23.80
2023-04-26T06:51:06.559Z,23.82
2023-04-26T06:52:06.621Z,23.84
2023-04-26T06:53:06.463Z,23.84
2023-04-26T06:54:06.479Z,23.87
2023-04-26T06:55:06.598Z,23.89
2023-04-26T06:56:09.646Z,23.91
2023-04-26T06:57:06.408Z,23.92
2023-04-26T06:58:06.413Z,23.94
2023-04-26T06:59:06.399Z,23.95
2023-04-26T07:00:06.633Z,23.97
2023-04-26T07:01:06.396Z,23.99
2023-04-26T07:02:06.708Z,24.01
2023-04-26T07:03:06.504Z,24.02
2023-04-26T07:04:06.552Z,24.04
2023-04-26T07:05:06.505Z,24.06
2023-04-26T07:06:06.405Z,24.08
2023-04-26T07:07:06.407Z,24.10
2023-04-26T07:08:07.044Z,24.10
2023-04-26T07:09:06.340Z,24.12
2023-04-26T07:10:06.701Z,24.14
2023-04-26T07:11:06.351Z,24.14
2023-04-26T07:12:06.562Z,24.14
2023-04-26T07:13:09.298Z,24.15
2023-04-26T07:14:06.303Z,24.14
2023-04-26T07:15:06.303Z,24.14
2023-04-26T07:16:06.357Z,24.15
2023-04-26T07:17:06.287Z,24.15
2023-04-26T07:18:06.648Z,24.17
2023-04-26T07:19:06.278Z,24.17
2023-04-26T07:20:06.620Z,24.16
2023-04-26T07:21:06.272Z,24.17
2023-04-26T07:22:06.282Z,24.17
2023-04-26T07:23:06.762Z,24.18
2023-04-26T07:24:06.251Z,24.19
2023-04-26T07:25:06.228Z,24.19
2023-04-26T07:26:06.222Z,24.19
2023-04-26T07:27:06.209Z,24.19
2023-04-26T07:28:06.633Z,24.20
2023-04-26T07:29:06.197Z,24.21
2023-04-26T07:30:06.409Z,24.22
2023-04-26T07:31:08.747Z,24.22
2023-04-26T07:32:06.207Z,24.21
2023-04-26T07:33:06.754Z,24.21
2023-04-26T07:34:06.167Z,24.22
2023-04-26T07:35:06.184Z,24.22
2023-04-26T07:36:06.164Z,24.23
2023-04-26T07:37:06.145Z,24.23
2023-04-26T07:38:06.614Z,24.22
2023-04-26T07:39:06.235Z,24.14
2023-04-26T07:40:06.129Z,24.09
2023-04-26T07:41:10.863Z,24.06
2023-04-26T07:42:06.524Z,24.07
2023-04-26T07:43:06.121Z,24.06
2023-04-26T07:44:06.099Z,24.08
2023-04-26T07:45:06.124Z,24.08
2023-04-26T07:46:06.169Z,24.07
2023-04-26T07:47:06.088Z,24.07
2023-04-26T07:48:06.120Z,24.09
2023-04-26T07:49:06.061Z,24.11
2023-04-26T07:50:06.125Z,24.13
2023-04-26T07:51:06.122Z,24.13
2023-04-26T07:52:06.048Z,24.14
2023-04-26T07:53:06.043Z,24.18
2023-04-26T07:54:06.037Z,24.20
2023-04-26T07:55:06.192Z,24.22
2023-04-26T07:56:06.132Z,24.25
2023-04-26T07:57:06.182Z,24.26
2023-04-26T07:58:05.997Z,24.28
2023-04-26T07:59:06.023Z,24.29
2023-04-26T08:00:06.130Z,24.29
2023-04-26T08:01:06.127Z,24.31
2023-04-26T08:02:06.174Z,24.33
2023-04-26T08:03:06.118Z,24.34
2023-04-26T08:04:06.188Z,24.36
2023-04-26T08:05:06.346Z,24.35
2023-04-26T08:06:06.306Z,24.35
2023-04-26T08:07:06.114Z,24.35
2023-04-26T08:08:06.137Z,24.36
2023-04-26T08:09:06.187Z,24.36
2023-04-26T08:10:06.218Z,24.36
2023-04-26T08:11:06.647Z,24.35
2023-04-26T08:12:06.659Z,24.35
2023-04-26T08:13:06.352Z,24.34
2023-04-26T08:14:06.378Z,24.33
2023-04-26T08:15:06.650Z,24.33
2023-04-26T08:16:06.466Z,24.32
2023-04-26T08:17:06.577Z,24.31
2023-04-26T08:18:06.639Z,24.31
2023-04-26T08:19:06.624Z,24.30
2023-04-26T08:20:07.141Z,24.31
2023-04-26T08:21:07.136Z,24.30
2023-04-26T08:22:06.895Z,24.29
2023-04-26T08:23:06.759Z,24.29
2023-04-26T08:24:06.803Z,24.29
2023-04-26T08:25:07.145Z,24.31
2023-04-26T08:26:07.129Z,24.31
2023-04-26T08:27:07.006Z,24.32
2023-04-26T08:28:06.984Z,24.32
2023-04-26T08:29:07.042Z,24.33
2023-04-26T08:30:07.075Z,24.33
2023-04-26T08:31:07.159Z,24.32
2023-04-26T08:32:07.173Z,24.32
2023-04-26T08:33:07.282Z,24.31
2023-04-26T08:34:07.302Z,24.31
2023-04-26T08:35:07.319Z,24.31
2023-04-26T08:36:07.634Z,24.31
2023-04-26T08:37:07.411Z,24.31
2023-04-26T08:38:07.454Z,24.31
2023-04-26T08:39:07.515Z,24.31
2023-04-26T08:40:07.542Z,24.31
2023-04-26T08:41:07.633Z,24.30
2023-04-26T08:42:07.635Z,24.28
2023-04-26T08:43:07.717Z,24.30
2023-04-26T08:44:07.743Z,24.31
2023-04-26T08:45:08.131Z,24.30
2023-04-26T08:46:07.907Z,24.30
2023-04-26T08:47:07.877Z,24.30
2023-04-26T08:48:07.956Z,24.31
2023-04-26T08:49:08.001Z,24.31
2023-04-26T08:50:08.152Z,24.30
2023-04-26T08:51:08.068Z,24.29
2023-04-26T08:52:08.109Z,24.28
2023-04-26T08:53:08.158Z,24.27
2023-04-26T08:54:08.208Z,24.27
2023-04-26T08:55:08.259Z,24.26
2023-04-26T08:56:09.194Z,24.25
2023-04-26T08:57:08.358Z,24.25
2023-04-26T08:58:08.412Z,24.24
2023-04-26T08:59:08.511Z,24.26
2023-04-26T09:00:08.523Z,24.25
2023-04-26T09:01:08.679Z,24.25
2023-04-26T09:02:08.744Z,24.26
2023-04-26T09:03:08.771Z,24.26
2023-04-26T09:04:08.918Z,24.25
2023-04-26T09:05:08.796Z,24.25
2023-04-26T09:06:09.162Z,24.26
2023-04-26T09:07:08.977Z,24.26
2023-04-26T09:08:08.965Z,24.26
2023-04-26T09:09:08.984Z,24.26
2023-04-26T09:10:09.031Z,24.26
2023-04-26T09:11:09.186Z,24.27
2023-04-26T09:12:09.244Z,24.26
2023-04-26T09:13:09.170Z,24.26
2023-04-26T09:14:09.216Z,24.26
2023-04-26T09:15:09.312Z,24.27
2023-04-26T09:16:09.664Z,24.26
2023-04-26T09:17:09.351Z,24.27
2023-04-26T09:18:09.413Z,24.26
2023-04-26T09:19:09.463Z,24.26
2023-04-26T09:20:09.501Z,24.25
2023-04-26T09:21:09.649Z,24.24
2023-04-26T09:22:09.590Z,24.26
2023-04-26T09:23:09.664Z,24.27
2023-04-26T09:24:10.153Z,24.27
2023-04-26T09:25:09.730Z,24.26
2023-04-26T09:26:09.796Z,24.26
2023-04-26T09:27:09.860Z,24.25
2023-04-26T09:28:09.882Z,24.25
2023-04-26T09:29:10.158Z,24.19
2023-04-26T09:30:09.993Z,24.15
2023-04-26T09:31:10.251Z,24.12
2023-04-26T09:32:13.305Z,24.06
2023-04-26T09:33:10.174Z,24.00
2023-04-26T09:34:10.659Z,23.94
2023-04-26T09:35:10.087Z,23.87
2023-04-26T09:36:10.160Z,23.79
2023-04-26T09:37:10.075Z,23.73
2023-04-26T09:38:12.660Z,23.70
2023-04-26T09:39:10.082Z,23.68
2023-04-26T09:40:10.059Z,23.62
2023-04-26T09:41:11.168Z,23.62
2023-04-26T09:42:10.118Z,23.64
2023-04-26T09:43:10.063Z,23.67
2023-04-26T09:44:10.049Z,23.71
2023-04-26T09:45:10.047Z,23.78
2023-04-26T09:46:10.160Z,23.84
2023-04-26T09:47:10.156Z,23.91
2023-04-26T09:48:10.011Z,23.98
2023-04-26T09:49:10.012Z,24.05
2023-04-26T09:50:10.191Z,24.10
2023-04-26T09:51:10.167Z,24.14
2023-04-26T09:52:10.099Z,24.18
2023-04-26T09:53:10.120Z,24.20
2023-04-26T09:54:10.169Z,24.24
2023-04-26T09:55:16.422Z,24.27
2023-04-26T09:56:10.681Z,24.28
2023-04-26T09:57:10.189Z,24.31
2023-04-26T09:58:10.202Z,24.34
2023-04-26T09:59:10.197Z,24.37
2023-04-26T10:00:10.167Z,24.40
2023-04-26T10:01:10.245Z,24.42
2023-04-26T10:02:10.151Z,24.44
2023-04-26T10:03:10.302Z,24.46
2023-04-26T10:04:10.269Z,24.48
2023-04-26T10:05:10.130Z,24.50
2023-04-26T10:06:10.161Z,24.52
2023-04-26T10:07:10.118Z,24.54
2023-04-26T10:08:10.149Z,24.54
2023-04-26T10:09:10.108Z,24.54
2023-04-26T10:10:10.091Z,24.55
2023-04-26T10:11:10.174Z,24.56
2023-04-26T10:12:10.081Z,24.56
2023-04-26T10:13:10.078Z,24.56
2023-04-26T10:14:10.078Z,24.57
2023-04-26T10:15:10.059Z,24.57
2023-04-26T10:16:10.487Z,24.56
2023-04-26T10:17:10.047Z,24.57
2023-04-26T10:18:10.222Z,24.58
2023-04-26T10:19:10.060Z,24.57
2023-04-26T10:20:10.045Z,24.58
2023-04-26T10:21:10.022Z,24.59
2023-04-26T10:22:10.020Z,24.59
2023-04-26T10:23:10.181Z,24.60
2023-04-26T10:24:10.004Z,24.60
2023-04-26T10:25:09.993Z,24.61
2023-04-26T10:26:10.271Z,24.62
2023-04-26T10:27:09.985Z,24.61
2023-04-26T10:28:09.975Z,24.59
2023-04-26T10:29:09.967Z,24.59
2023-04-26T10:30:10.384Z,24.58
2023-04-26T10:31:10.565Z,24.58
2023-04-26T10:32:10.513Z,24.57
2023-04-26T10:33:10.495Z,24.57
2023-04-26T10:34:11.938Z,24.57
2023-04-26T10:35:10.356Z,24.55
2023-04-26T10:36:10.569Z,24.55
2023-04-26T10:37:10.243Z,24.54
2023-04-26T10:38:10.421Z,24.55
2023-04-26T10:39:10.308Z,24.56
2023-04-26T10:40:10.314Z,24.55
2023-04-26T10:41:10.294Z,24.57
2023-04-26T10:42:10.291Z,24.58
2023-04-26T10:43:10.641Z,24.59
2023-04-26T10:44:10.148Z,24.60
2023-04-26T10:45:10.307Z,24.61
2023-04-26T10:46:09.887Z,24.63
2023-04-26T10:47:10.235Z,24.63
2023-04-26T10:48:10.287Z,24.62
2023-04-26T10:49:10.208Z,24.63
2023-04-26T10:50:09.889Z,24.63
2023-04-26T10:51:10.218Z,24.63
2023-04-26T10:52:09.801Z,24.64
2023-04-26T10:53:10.197Z,24.63
2023-04-26T10:54:09.803Z,24.64
2023-04-26T10:55:09.798Z,24.63
2023-04-26T10:56:10.246Z,24.65
2023-04-26T10:57:09.794Z,24.66
2023-04-26T10:58:09.765Z,24.67
2023-04-26T10:59:28.343Z,24.68
2023-04-26T11:00:09.746Z,24.68
2023-04-26T11:01:09.828Z,24.69
2023-04-26T11:02:09.747Z,24.70
2023-04-26T11:03:10.281Z,24.68
2023-04-26T11:04:09.828Z,24.65
2023-04-26T11:05:09.785Z,24.65
2023-04-26T11:06:10.198Z,24.63
2023-04-26T11:07:09.725Z,24.63
2023-04-26T11:08:10.572Z,24.63
2023-04-26T11:09:09.686Z,24.63
2023-04-26T11:10:09.686Z,24.63
2023-04-26T11:11:09.689Z,24.63
2023-04-26T11:12:09.671Z,24.63
2023-04-26T11:13:09.668Z,24.64
2023-04-26T11:14:09.654Z,24.63
2023-04-26T11:15:09.679Z,24.51
2023-04-26T11:16:09.821Z,24.34
2023-04-26T11:17:10.447Z,24.27
2023-04-26T11:18:09.635Z,24.20
2023-04-26T11:19:09.631Z,24.15
2023-04-26T11:20:10.209Z,24.11
2023-04-26T11:21:09.609Z,24.08
2023-04-26T11:22:09.592Z,24.05
2023-04-26T11:23:09.626Z,24.05
2023-04-26T11:24:09.586Z,24.05
2023-04-26T11:25:09.595Z,24.05
2023-04-26T11:26:09.702Z,24.05
2023-04-26T11:27:09.643Z,24.04
2023-04-26T11:28:09.684Z,24.04
2023-04-26T11:29:09.734Z,24.04
2023-04-26T11:30:09.797Z,24.04
2023-04-26T11:31:10.244Z,24.04
2023-04-26T11:32:10.300Z,24.04
2023-04-26T11:33:09.935Z,24.04
2023-04-26T11:34:09.985Z,24.03
2023-04-26T11:35:10.035Z,24.02
2023-04-26T11:36:10.199Z,24.01
2023-04-26T11:37:10.089Z,23.93
2023-04-26T11:38:10.112Z,23.88
2023-04-26T11:39:11.257Z,23.84
2023-04-26T11:40:10.287Z,23.82
2023-04-26T11:41:10.144Z,23.80
2023-04-26T11:42:10.146Z,23.79
2023-04-26T11:43:10.126Z,23.80
2023-04-26T11:44:10.121Z,23.82
2023-04-26T11:45:10.203Z,23.82
2023-04-26T11:46:10.468Z,23.85
2023-04-26T11:47:10.282Z,23.87
2023-04-26T11:48:10.103Z,23.90
2023-04-26T11:49:10.073Z,23.92
2023-04-26T11:50:10.088Z,23.95
2023-04-26T11:51:10.216Z,23.96
2023-04-26T11:52:10.071Z,24.00
2023-04-26T11:53:10.075Z,24.00
2023-04-26T11:54:10.031Z,23.95
2023-04-26T11:55:10.053Z,23.87
2023-04-26T11:56:10.020Z,23.75
2023-04-26T11:57:10.009Z,23.63
2023-04-26T11:58:09.994Z,23.52
2023-04-26T11:59:09.994Z,23.44
2023-04-26T12:00:10.217Z,23.38
2023-04-26T12:01:10.211Z,23.34
2023-04-26T12:02:10.045Z,23.29
2023-04-26T12:03:10.251Z,23.26
2023-04-26T12:04:10.468Z,23.23
2023-04-26T12:05:09.979Z,23.19
2023-04-26T12:06:09.954Z,23.15
2023-04-26T12:07:09.992Z,23.12
2023-04-26T12:08:09.921Z,23.12
2023-04-26T12:09:09.953Z,23.09
2023-04-26T12:10:10.018Z,23.04
2023-04-26T12:11:10.028Z,23.03
2023-04-26T12:12:10.223Z,23.06
2023-04-26T12:13:10.110Z,23.09
2023-04-26T12:14:10.390Z,23.15
2023-04-26T12:15:10.151Z,23.21
2023-04-26T12:16:22.458Z,23.27
2023-04-26T12:17:10.844Z,23.33
2023-04-26T12:18:10.863Z,23.42
2023-04-26T12:19:10.135Z,23.50
2023-04-26T12:20:10.186Z,23.58
2023-04-26T12:21:10.121Z,23.67
2023-04-26T12:22:10.150Z,23.75
2023-04-26T12:23:10.114Z,23.81
2023-04-26T12:24:10.098Z,23.89
2023-04-26T12:25:10.108Z,23.96
2023-04-26T12:26:10.109Z,24.01
2023-04-26T12:27:10.111Z,24.07
2023-04-26T12:28:10.339Z,24.13
2023-04-26T12:29:10.134Z,24.17
2023-04-26T12:30:10.245Z,24.21
2023-04-26T12:31:10.244Z,24.24
2023-04-26T12:32:10.732Z,24.28
2023-04-26T12:33:16.949Z,24.31
2023-04-26T12:34:10.260Z,24.34
2023-04-26T12:35:10.267Z,24.37
2023-04-26T12:36:10.723Z,24.40
2023-04-26T12:37:10.246Z,24.42
2023-04-26T12:38:10.564Z,24.45
2023-04-26T12:39:10.221Z,24.47
2023-04-26T12:40:10.268Z,24.49
2023-04-26T12:41:10.230Z,24.51
2023-04-26T12:42:10.212Z,24.53
2023-04-26T12:43:10.221Z,24.55
2023-04-26T12:44:10.187Z,24.56
2023-04-26T12:45:10.184Z,24.57
2023-04-26T12:46:10.303Z,24.58
2023-04-26T12:47:10.396Z,24.60
2023-04-26T12:48:10.235Z,24.62
2023-04-26T12:49:10.268Z,24.63
2023-04-26T12:50:10.173Z,24.64
2023-04-26T12:51:10.208Z,24.65
2023-04-26T12:52:10.892Z,24.66
2023-04-26T12:53:14.046Z,24.66